createdAt,value
2022-08-22T00:07:01.625Z,0
2022-08-22T00:17:01.723Z,0
2022-08-22T00:27:01.612Z,0
2022-08-22T00:37:01.725Z,0
2022-08-22T00:47:01.611Z,0
2022-08-22T00:57:01.737Z,0
2022-08-22T01:07:01.633Z,0
2022-08-22T01:17:01.734Z,0
2022-08-22T01:27:01.833Z,0
2022-08-22T01:37:01.757Z,0
2022-08-22T01:47:01.847Z,0
2022-08-22T01:57:01.758Z,0
2022-08-22T02:07:01.848Z,0
2022-08-22T02:17:01.748Z,0
2022-08-22T02:27:01.851Z,0
2022-08-22T02:37:01.767Z,0
2022-08-22T02:47:01.841Z,0
2022-08-22T02:57:01.741Z,0
2022-08-22T03:07:01.844Z,0
2022-08-22T03:17:01.937Z,0
2022-08-22T03:27:01.837Z,0
2022-08-22T03:37:01.992Z,0
2022-08-22T03:47:01.838Z,0
2022-08-22T03:57:01.925Z,0
2022-08-22T04:07:01.834Z,0
2022-08-22T04:17:01.927Z,0
2022-08-22T04:27:02.028Z,0
2022-08-22T04:37:01.935Z,0
2022-08-22T04:47:02.022Z,0
2022-08-22T04:57:01.916Z,3
2022-08-22T05:07:02.009Z,0
2022-08-22T05:17:01.916Z,0
2022-08-22T05:27:02.009Z,0
2022-08-22T05:37:01.917Z,0
2022-08-22T05:47:02.011Z,0
2022-08-22T05:57:04.953Z,0
2022-08-22T06:07:02.000Z,0
2022-08-22T06:17:02.100Z,0
2022-08-22T06:27:01.996Z,0
2022-08-22T06:37:02.093Z,0
2022-08-22T06:47:02.001Z,0
2022-08-22T06:57:02.110Z,0
2022-08-22T07:07:02.001Z,0
2022-08-22T07:17:02.102Z,0
2022-08-22T07:27:02.008Z,5
2022-08-22T07:37:02.116Z,0
2022-08-22T07:47:02.213Z,3
2022-08-22T07:57:02.109Z,0
2022-08-22T08:07:02.211Z,0
2022-08-22T08:17:02.095Z,3
2022-08-22T08:27:02.201Z,9
2022-08-22T08:37:02.135Z,4
2022-08-22T08:47:02.216Z,6
2022-08-22T08:57:02.126Z,11
2022-08-22T09:07:02.228Z,4
2022-08-22T09:17:02.135Z,9
2022-08-22T09:27:02.239Z,8
2022-08-22T09:37:02.348Z,7
2022-08-22T09:47:02.391Z,12
2022-08-22T09:57:02.334Z,5
2022-08-22T10:07:02.216Z,10
2022-08-22T10:17:02.324Z,12
2022-08-22T10:27:02.222Z,13
2022-08-22T10:37:02.336Z,6
2022-08-22T10:47:02.421Z,12
2022-08-22T10:57:02.320Z,6
2022-08-22T11:07:02.410Z,3
2022-08-22T11:17:02.752Z,10
2022-08-22T11:27:02.409Z,6
2022-08-22T11:37:02.317Z,12
2022-08-22T11:47:02.407Z,14
2022-08-22T11:57:02.293Z,4
2022-08-22T12:07:02.400Z,3
2022-08-22T12:17:02.498Z,2
2022-08-22T12:27:02.403Z,0
2022-08-22T12:37:02.507Z,0
2022-08-22T12:47:02.390Z,0
2022-08-22T12:57:02.505Z,0
2022-08-22T13:07:02.385Z,0
2022-08-22T13:17:10.083Z,0
2022-08-22T13:27:02.391Z,0
2022-08-22T13:37:02.508Z,0
2022-08-22T13:47:13.485Z,0
2022-08-22T13:57:02.480Z,0
2022-08-22T14:07:02.583Z,0
2022-08-22T14:17:02.466Z,0
2022-08-22T14:27:05.030Z,0
2022-08-22T14:37:02.482Z,0
2022-08-22T14:47:03.806Z,0
2022-08-22T14:57:02.670Z,0
2022-08-22T15:07:02.569Z,0
2022-08-22T15:17:02.663Z,0
2022-08-22T15:27:06.582Z,0
2022-08-22T15:37:05.596Z,0
2022-08-22T15:47:02.562Z,0
2022-08-22T15:57:02.643Z,0
2022-08-22T16:07:02.548Z,0
2022-08-22T16:17:02.649Z,0
2022-08-22T16:27:02.751Z,0
2022-08-22T16:37:02.650Z,0
2022-08-22T16:47:02.755Z,0
2022-08-22T16:57:02.647Z,0
2022-08-22T17:07:02.747Z,0
2022-08-22T17:17:03.257Z,0
2022-08-22T17:27:02.734Z,0
2022-08-22T17:37:02.837Z,0
2022-08-22T17:47:02.725Z,0
2022-08-22T17:57:05.642Z,0
2022-08-22T18:07:02.742Z,0
2022-08-22T18:17:02.820Z,0
2022-08-22T18:27:02.718Z,0
2022-08-22T18:37:02.828Z,0
2022-08-22T18:47:04.010Z,0
2022-08-22T18:57:02.809Z,0
2022-08-22T19:07:02.907Z,0
2022-08-22T19:17:02.912Z,0
2022-08-22T19:27:02.965Z,0
2022-08-22T19:37:02.898Z,0
2022-08-22T19:47:02.790Z,0
2022-08-22T20:07:02.908Z,0
2022-08-22T20:17:02.811Z,0
2022-08-22T20:27:13.689Z,0
2022-08-22T20:37:23.543Z,0
2022-08-22T20:47:02.894Z,0
2022-08-22T20:57:02.999Z,0
2022-08-22T21:07:02.924Z,0
2022-08-22T21:17:02.987Z,0
2022-08-22T21:27:02.919Z,0
2022-08-22T21:37:03.006Z,0
2022-08-22T21:47:02.908Z,0
2022-08-22T21:57:03.008Z,0
2022-08-22T22:07:02.934Z,0
2022-08-22T22:17:03.034Z,0
2022-08-22T22:27:02.928Z,0
2022-08-22T22:37:03.039Z,0
2022-08-22T22:47:03.151Z,0
2022-08-22T22:57:03.034Z,0
2022-08-22T23:07:03.136Z,0
2022-08-22T23:17:03.032Z,0
2022-08-22T23:27:03.124Z,0
2022-08-22T23:37:03.049Z,0
2022-08-22T23:47:03.145Z,0
2022-08-22T23:57:03.028Z,0
